createdAt,value
2022-12-18T00:04:02.126Z,59.42
2022-12-18T00:06:10.296Z,57.05
2022-12-18T00:08:15.064Z,58.65
2022-12-18T00:10:22.744Z,58.70
2022-12-18T00:12:29.905Z,57.38
2022-12-18T00:14:35.339Z,62.35
2022-12-18T00:16:41.372Z,61.83
2022-12-18T00:18:48.972Z,61.95
2022-12-18T00:20:53.735Z,60.72
2022-12-18T00:22:59.336Z,57.42
2022-12-18T00:25:04.206Z,56.35
2022-12-18T00:27:09.509Z,58.38
2022-12-18T00:29:17.410Z,59.25
2022-12-18T00:31:24.358Z,57.53
2022-12-18T00:33:31.568Z,56.67
2022-12-18T00:35:38.952Z,59.38
2022-12-18T00:37:43.903Z,57.33
2022-12-18T00:39:52.429Z,56.33
2022-12-18T00:42:10.822Z,56.25
2022-12-18T00:44:17.863Z,55.95
2022-12-18T00:46:23.716Z,54.58
2022-12-18T00:48:28.508Z,57.78
2022-12-18T00:52:44.052Z,54.00
2022-12-18T00:54:48.851Z,53.78
2022-12-18T00:56:53.699Z,58.40
2022-12-18T00:58:58.507Z,53.20
2022-12-18T01:01:03.379Z,52.45
2022-12-18T01:05:15.011Z,49.25
2022-12-18T01:07:19.853Z,51.33
2022-12-18T01:09:27.335Z,49.65
2022-12-18T01:11:32.175Z,47.17
2022-12-18T01:13:37.316Z,46.20
2022-12-18T01:15:42.708Z,43.88
2022-12-18T01:17:49.257Z,44.63
2022-12-18T01:19:54.174Z,46.58
2022-12-18T01:24:03.777Z,41.67
2022-12-18T01:28:17.211Z,43.80
2022-12-18T01:30:22.119Z,40.85
2022-12-18T01:34:31.566Z,36.65
2022-12-18T01:36:38.622Z,40.22
2022-12-18T01:38:43.441Z,37.83
2022-12-18T01:40:48.181Z,39.33
2022-12-18T01:42:56.910Z,39.70
2022-12-18T01:45:03.242Z,41.13
2022-12-18T01:47:08.378Z,37.75
2022-12-18T01:49:15.494Z,39.08
2022-12-18T01:51:20.807Z,37.80
2022-12-18T01:53:27.573Z,37.35
2022-12-18T01:55:35.155Z,36.72
2022-12-18T01:57:42.990Z,40.47
2022-12-18T01:59:55.147Z,39.92
2022-12-18T02:02:01.045Z,39.80
2022-12-18T02:04:24.200Z,37.10
2022-12-18T02:06:36.587Z,39.22
2022-12-18T02:08:48.369Z,38.17
2022-12-18T02:11:01.089Z,38.85
2022-12-18T02:13:16.188Z,39.58
2022-12-18T02:15:31.134Z,30.38
2022-12-18T02:17:41.068Z,31.25
2022-12-18T02:19:59.279Z,37.33
2022-12-18T02:22:22.626Z,39.88
2022-12-18T02:24:37.055Z,37.80
2022-12-18T02:26:48.935Z,29.70
2022-12-18T02:29:01.961Z,38.50
2022-12-18T02:31:12.692Z,37.25
2022-12-18T02:33:19.189Z,37.55
2022-12-18T02:35:27.728Z,37.17
2022-12-18T02:37:37.603Z,36.72
2022-12-18T02:39:47.146Z,39.38
2022-12-18T02:41:56.282Z,36.67
2022-12-18T02:44:05.973Z,38.38
2022-12-18T02:46:31.116Z,35.17
2022-12-18T02:48:39.178Z,36.10
2022-12-18T02:50:49.161Z,35.60
2022-12-18T02:53:06.969Z,33.60
2022-12-18T02:55:27.607Z,36.75
2022-12-18T02:57:46.644Z,36.67
2022-12-18T03:00:01.482Z,34.83
2022-12-18T03:02:20.059Z,35.45
2022-12-18T03:04:30.326Z,35.83
2022-12-18T03:06:41.434Z,33.83
2022-12-18T03:08:49.225Z,33.78
2022-12-18T03:11:02.097Z,34.92
2022-12-18T03:13:15.774Z,36.95
2022-12-18T03:15:24.895Z,34.28
2022-12-18T03:17:37.872Z,35.33
2022-12-18T03:19:44.933Z,34.17
2022-12-18T03:21:53.346Z,35.38
2022-12-18T03:23:59.442Z,32.25
2022-12-18T03:26:10.937Z,31.38
2022-12-18T03:28:25.471Z,31.02
2022-12-18T03:30:41.214Z,31.85
2022-12-18T03:32:51.783Z,32.10
2022-12-18T03:35:02.252Z,33.92
2022-12-18T03:37:11.237Z,32.83
2022-12-18T03:39:16.191Z,32.55
2022-12-18T03:41:34.517Z,31.02
2022-12-18T03:44:06.126Z,32.78
2022-12-18T03:46:20.860Z,30.27
2022-12-18T03:48:36.535Z,32.00
2022-12-18T03:50:53.603Z,30.90
2022-12-18T03:53:06.675Z,30.90
2022-12-18T03:55:13.622Z,31.25
2022-12-18T03:57:22.411Z,31.45
2022-12-18T03:59:34.383Z,30.73
2022-12-18T04:01:43.689Z,31.83
2022-12-18T04:03:53.134Z,30.42
2022-12-18T04:06:01.460Z,32.40
2022-12-18T04:08:07.535Z,30.58
2022-12-18T04:10:17.633Z,30.90
2022-12-18T04:12:23.432Z,29.73
2022-12-18T04:14:28.327Z,31.00
2022-12-18T04:16:37.870Z,31.88
2022-12-18T04:18:44.680Z,30.73
2022-12-18T04:20:49.971Z,30.45
2022-12-18T04:22:56.223Z,30.00
2022-12-18T04:25:01.641Z,29.58
2022-12-18T04:27:15.751Z,27.48
2022-12-18T04:29:25.550Z,26.00
2022-12-18T04:33:38.443Z,27.02
2022-12-18T04:35:45.737Z,25.45
2022-12-18T04:37:51.964Z,25.67
2022-12-18T04:42:09.527Z,24.85
2022-12-18T04:44:14.430Z,24.88
2022-12-18T04:48:24.486Z,23.58
2022-12-18T04:50:43.889Z,27.05
2022-12-18T04:52:49.617Z,23.95
2022-12-18T04:54:54.434Z,23.85
2022-12-18T04:56:59.223Z,25.38
2022-12-18T04:59:05.057Z,24.20
2022-12-18T05:01:11.138Z,25.17
2022-12-18T05:03:15.897Z,24.88
2022-12-18T05:05:20.803Z,25.27
2022-12-18T05:09:32.886Z,23.33
2022-12-18T05:11:40.843Z,25.13
2022-12-18T05:13:46.485Z,26.45
2022-12-18T05:15:55.228Z,24.65
2022-12-18T05:18:00.405Z,27.30
2022-12-18T05:20:06.008Z,25.52
2022-12-18T05:22:13.804Z,25.52
2022-12-18T05:24:21.203Z,25.00
2022-12-18T05:26:25.993Z,28.77
2022-12-18T05:28:32.561Z,24.90
2022-12-18T05:30:37.423Z,25.63
2022-12-18T05:32:42.600Z,25.10
2022-12-18T05:34:47.344Z,24.35
2022-12-18T05:36:52.439Z,26.02
2022-12-18T05:41:04.441Z,26.75
2022-12-18T05:43:09.722Z,25.35
2022-12-18T05:45:14.611Z,23.88
2022-12-18T05:47:19.441Z,25.90
2022-12-18T05:49:24.379Z,25.05
2022-12-18T05:51:29.210Z,24.55
2022-12-18T05:53:34.050Z,24.10
2022-12-18T05:55:40.089Z,24.90
2022-12-18T05:57:47.564Z,25.55
2022-12-18T05:59:52.561Z,24.58
2022-12-18T06:01:57.581Z,25.52
2022-12-18T06:04:02.509Z,25.75
2022-12-18T06:06:16.051Z,23.83
2022-12-18T06:08:20.996Z,25.67
2022-12-18T06:10:25.772Z,24.70
2022-12-18T06:12:30.527Z,23.98
2022-12-18T06:14:37.890Z,27.33
2022-12-18T06:16:42.938Z,24.95
2022-12-18T06:20:58.821Z,25.08
2022-12-18T06:23:03.838Z,24.48
2022-12-18T06:25:10.100Z,25.23
2022-12-18T06:27:15.155Z,25.27
2022-12-18T06:29:19.960Z,25.52
2022-12-18T06:31:27.491Z,24.58
2022-12-18T06:33:32.590Z,25.08
2022-12-18T06:35:37.551Z,23.55
2022-12-18T06:37:42.284Z,23.25
2022-12-18T06:39:47.099Z,23.83
2022-12-18T06:41:51.842Z,25.60
2022-12-18T06:43:59.723Z,23.30
2022-12-18T06:46:06.087Z,24.90
2022-12-18T06:48:13.763Z,21.63
2022-12-18T06:50:18.625Z,24.50
2022-12-18T06:52:23.420Z,23.58
2022-12-18T06:54:28.214Z,22.15
2022-12-18T06:56:33.068Z,24.15
2022-12-18T06:58:37.909Z,28.35
2022-12-18T07:00:42.813Z,27.10
2022-12-18T07:02:48.420Z,25.67
2022-12-18T07:04:58.778Z,26.80
2022-12-18T07:07:03.625Z,23.67
2022-12-18T07:09:08.418Z,25.60
2022-12-18T07:11:13.214Z,24.50
2022-12-18T07:13:18.081Z,26.15
2022-12-18T07:17:27.636Z,24.02
2022-12-18T07:19:33.401Z,23.05
2022-12-18T07:21:41.181Z,24.70
2022-12-18T07:23:49.237Z,25.88
2022-12-18T07:25:54.263Z,25.95
2022-12-18T07:27:59.027Z,26.52
2022-12-18T07:30:03.949Z,24.58
2022-12-18T07:32:11.529Z,24.15
2022-12-18T07:34:18.448Z,23.90
2022-12-18T07:36:26.777Z,23.77
2022-12-18T07:38:34.501Z,23.55
2022-12-18T07:40:39.268Z,22.42
2022-12-18T07:42:44.170Z,24.10
2022-12-18T07:44:48.953Z,23.90
2022-12-18T07:46:53.736Z,24.50
2022-12-18T07:48:58.528Z,24.05
2022-12-18T07:51:03.787Z,25.02
2022-12-18T07:53:08.558Z,23.73
2022-12-18T07:55:16.066Z,24.45
2022-12-18T07:57:49.014Z,23.75
2022-12-18T07:59:46.130Z,23.55
2022-12-18T08:01:51.099Z,25.65
2022-12-18T08:03:56.130Z,23.67
2022-12-18T08:06:03.121Z,24.77
2022-12-18T08:08:08.301Z,23.98
2022-12-18T08:12:20.479Z,23.20
2022-12-18T08:14:25.273Z,25.33
2022-12-18T08:16:31.360Z,25.83
2022-12-18T08:18:38.893Z,23.75
2022-12-18T08:20:46.797Z,24.23
2022-12-18T08:22:51.665Z,23.52
2022-12-18T08:24:56.517Z,24.85
2022-12-18T08:27:28.329Z,24.55
2022-12-18T08:29:29.169Z,25.13
2022-12-18T08:33:40.864Z,22.70
2022-12-18T08:35:46.431Z,19.80
2022-12-18T08:37:51.511Z,23.40
2022-12-18T08:42:15.909Z,21.35
2022-12-18T08:44:33.158Z,20.50
2022-12-18T08:46:41.328Z,19.50
2022-12-18T08:48:46.216Z,22.67
2022-12-18T08:50:58.526Z,20.15
2022-12-18T08:53:03.676Z,20.02
2022-12-18T08:57:17.169Z,20.33
2022-12-18T08:59:22.644Z,18.30
2022-12-18T09:01:28.295Z,20.63
2022-12-18T09:03:33.676Z,20.55
2022-12-18T09:05:41.330Z,19.48
2022-12-18T09:07:46.201Z,19.13
2022-12-18T09:09:51.105Z,19.77
2022-12-18T09:11:55.981Z,20.90
2022-12-18T09:14:04.346Z,20.05
2022-12-18T09:16:10.910Z,21.33
2022-12-18T09:18:16.212Z,20.55
2022-12-18T09:20:21.690Z,19.48
2022-12-18T09:22:26.486Z,19.33
2022-12-18T09:24:36.735Z,20.10
2022-12-18T09:26:41.549Z,20.58
2022-12-18T09:28:51.905Z,20.23
2022-12-18T09:30:59.278Z,20.15
2022-12-18T09:33:04.486Z,20.30
2022-12-18T09:35:11.514Z,21.15
2022-12-18T09:39:22.451Z,20.58
2022-12-18T09:41:45.241Z,20.25
2022-12-18T09:43:54.464Z,21.10
2022-12-18T09:46:05.581Z,20.77
2022-12-18T09:48:14.856Z,21.85
2022-12-18T09:50:30.729Z,19.73
2022-12-18T09:52:39.624Z,18.65
2022-12-18T09:54:45.725Z,18.33
2022-12-18T09:56:51.021Z,20.25
2022-12-18T09:59:01.946Z,18.52
2022-12-18T10:01:14.776Z,17.52
2022-12-18T10:03:22.072Z,18.85
2022-12-18T10:05:38.108Z,18.52
2022-12-18T10:07:53.753Z,18.67
2022-12-18T10:12:16.323Z,17.88
2022-12-18T10:14:26.496Z,18.67
2022-12-18T10:16:43.176Z,20.50
2022-12-18T10:19:17.527Z,18.77
2022-12-18T10:21:28.601Z,19.08
2022-12-18T10:23:48.008Z,18.85
2022-12-18T10:25:59.292Z,20.77
2022-12-18T10:28:14.373Z,23.05
2022-12-18T10:30:21.286Z,22.48
2022-12-18T10:32:31.253Z,20.25
2022-12-18T10:34:36.446Z,19.60
2022-12-18T10:36:41.963Z,18.88
2022-12-18T10:38:47.142Z,18.23
2022-12-18T10:43:14.606Z,20.25
2022-12-18T10:45:21.337Z,19.95
2022-12-18T10:47:28.748Z,18.95
2022-12-18T10:49:37.960Z,18.42
2022-12-18T10:51:42.958Z,18.50
2022-12-18T10:53:58.466Z,19.35
2022-12-18T10:58:26.315Z,17.42
2022-12-18T11:00:33.511Z,18.58
2022-12-18T11:02:42.108Z,20.50
2022-12-18T11:04:55.393Z,19.50
2022-12-18T11:07:03.189Z,18.88
2022-12-18T11:09:21.816Z,18.92
2022-12-18T11:11:28.036Z,18.08
2022-12-18T11:13:35.116Z,18.02
2022-12-18T11:15:40.939Z,18.88
2022-12-18T11:17:52.104Z,19.15
2022-12-18T11:19:58.215Z,19.08
2022-12-18T11:22:04.719Z,18.70
2022-12-18T11:24:23.802Z,18.35
2022-12-18T11:26:41.425Z,19.60
2022-12-18T11:28:50.137Z,17.65
2022-12-18T11:31:15.750Z,17.65
2022-12-18T11:33:25.959Z,14.38
2022-12-18T11:35:43.110Z,18.98
2022-12-18T11:37:53.478Z,17.33
2022-12-18T11:40:03.234Z,19.75
2022-12-18T11:42:14.316Z,19.98
2022-12-18T11:44:25.867Z,19.30
2022-12-18T11:46:39.644Z,18.50
2022-12-18T11:48:53.691Z,19.13
2022-12-18T11:51:00.291Z,20.77
2022-12-18T11:53:06.599Z,20.23
2022-12-18T11:55:16.619Z,20.15
2022-12-18T11:57:35.327Z,21.10
2022-12-18T11:59:45.611Z,19.48
2022-12-18T12:01:55.624Z,20.60
2022-12-18T12:04:25.384Z,18.00
2022-12-18T12:06:40.945Z,20.10
2022-12-18T12:09:00.458Z,21.25
2022-12-18T12:11:11.015Z,20.52
2022-12-18T12:13:29.799Z,19.50
2022-12-18T12:15:42.736Z,18.70
2022-12-18T12:17:54.981Z,20.83
2022-12-18T12:20:13.040Z,20.08
2022-12-18T12:22:25.926Z,19.48
2022-12-18T12:24:42.367Z,20.63
2022-12-18T12:26:53.836Z,19.58
2022-12-18T12:29:10.597Z,19.90
2022-12-18T12:31:29.460Z,18.63
2022-12-18T12:33:47.860Z,18.98
2022-12-18T12:36:04.792Z,20.45
2022-12-18T12:38:14.665Z,20.48
2022-12-18T12:40:51.203Z,19.83
2022-12-18T12:43:08.923Z,20.27
2022-12-18T12:45:22.815Z,21.02
2022-12-18T12:47:31.430Z,19.52
2022-12-18T12:49:40.826Z,20.27
2022-12-18T12:51:57.883Z,20.17
2022-12-18T12:54:05.617Z,21.05
2022-12-18T12:56:14.958Z,19.75
2022-12-18T12:58:29.210Z,19.13
2022-12-18T13:00:43.136Z,20.50
2022-12-18T13:02:55.198Z,23.05
2022-12-18T13:05:04.632Z,21.42
2022-12-18T13:07:19.530Z,20.88
2022-12-18T13:09:24.764Z,20.80
2022-12-18T13:11:59.986Z,20.48
2022-12-18T13:14:05.773Z,21.80
2022-12-18T13:18:23.628Z,21.73
2022-12-18T13:20:38.101Z,20.85
2022-12-18T13:22:48.740Z,21.08
2022-12-18T13:24:54.404Z,20.20
2022-12-18T13:27:00.355Z,20.95
2022-12-18T13:29:07.139Z,20.42
2022-12-18T13:31:12.063Z,23.02
2022-12-18T13:36:32.107Z,21.63
2022-12-18T13:38:42.366Z,20.15
2022-12-18T13:41:15.405Z,21.52
2022-12-18T13:43:38.905Z,21.00
2022-12-18T13:45:49.660Z,20.45
2022-12-18T13:47:54.626Z,21.63
2022-12-18T13:50:01.005Z,19.40
2022-12-18T13:52:07.114Z,21.50
2022-12-18T13:54:23.496Z,20.60
2022-12-18T13:56:29.897Z,20.38
2022-12-18T13:58:38.041Z,22.40
2022-12-18T14:00:46.154Z,21.33
2022-12-18T14:02:52.610Z,22.55
2022-12-18T14:04:58.768Z,20.48
2022-12-18T14:07:08.191Z,20.73
2022-12-18T14:09:21.596Z,20.30
2022-12-18T14:11:27.086Z,20.58
2022-12-18T14:13:35.892Z,20.73
2022-12-18T14:15:44.597Z,20.10
2022-12-18T14:17:50.660Z,20.80
2022-12-18T14:19:55.609Z,20.00
2022-12-18T14:22:00.464Z,21.90
2022-12-18T14:24:16.788Z,20.92
2022-12-18T14:26:30.387Z,22.77
2022-12-18T14:28:37.982Z,21.08
2022-12-18T14:30:44.550Z,19.05
2022-12-18T14:33:03.668Z,20.52
2022-12-18T14:35:17.319Z,19.83
2022-12-18T14:38:06.651Z,19.88
2022-12-18T14:40:17.448Z,21.98
2022-12-18T14:42:29.267Z,21.98
2022-12-18T14:44:44.288Z,21.83
2022-12-18T14:46:56.041Z,20.92
2022-12-18T14:51:08.718Z,21.17
2022-12-18T14:53:24.964Z,20.88
2022-12-18T14:55:30.215Z,22.60
2022-12-18T14:57:44.612Z,21.88
2022-12-18T14:59:49.734Z,23.00
2022-12-18T15:02:02.348Z,25.77
2022-12-18T15:04:26.474Z,22.70
2022-12-18T15:06:38.198Z,22.83
2022-12-18T15:08:43.002Z,23.70
2022-12-18T15:10:52.161Z,23.20
2022-12-18T15:13:24.387Z,23.67
2022-12-18T15:15:51.226Z,21.65
2022-12-18T15:18:03.904Z,21.65
2022-12-18T15:20:15.156Z,21.13
2022-12-18T15:22:24.650Z,23.52
2022-12-18T15:24:34.676Z,23.52
2022-12-18T15:26:41.291Z,21.45
2022-12-18T15:28:51.994Z,21.90
2022-12-18T15:31:08.681Z,20.92
2022-12-18T15:33:28.659Z,19.95
2022-12-18T15:35:34.782Z,22.23
2022-12-18T15:37:42.000Z,22.38
2022-12-18T15:39:47.113Z,22.70
2022-12-18T15:42:04.893Z,22.65
2022-12-18T15:44:27.553Z,21.13
2022-12-18T15:46:32.555Z,24.48
2022-12-18T15:50:43.460Z,23.95
2022-12-18T15:52:50.754Z,23.73
2022-12-18T15:55:08.113Z,24.20
2022-12-18T15:57:29.333Z,23.58
2022-12-18T15:59:37.198Z,22.45
2022-12-18T16:01:43.191Z,24.60
2022-12-18T16:03:48.149Z,23.30
2022-12-18T16:05:53.091Z,23.75
2022-12-18T16:07:59.283Z,24.85
2022-12-18T16:10:04.165Z,25.48
2022-12-18T16:14:20.635Z,25.30
2022-12-18T16:16:28.152Z,23.52
2022-12-18T16:18:33.984Z,22.45
2022-12-18T16:20:42.246Z,22.60
2022-12-18T16:22:48.889Z,23.20
2022-12-18T16:24:54.411Z,25.15
2022-12-18T16:27:01.061Z,24.80
2022-12-18T16:29:05.955Z,25.88
2022-12-18T16:31:15.163Z,23.55
2022-12-18T16:33:22.564Z,24.50
2022-12-18T16:35:28.670Z,25.67
2022-12-18T16:37:33.518Z,28.00
2022-12-18T16:41:45.993Z,25.42
2022-12-18T16:43:54.839Z,25.42
2022-12-18T16:46:02.470Z,26.48
2022-12-18T16:48:07.921Z,24.67
2022-12-18T16:50:15.685Z,25.45
2022-12-18T16:52:20.573Z,26.98
2022-12-18T16:54:25.552Z,26.95
2022-12-18T16:56:30.646Z,27.95
2022-12-18T17:00:43.972Z,26.73
2022-12-18T17:02:48.964Z,24.52
2022-12-18T17:04:57.130Z,26.33
2022-12-18T17:07:04.910Z,27.75
2022-12-18T17:09:11.713Z,29.38
2022-12-18T17:11:16.816Z,27.23
2022-12-18T17:13:26.128Z,26.65
2022-12-18T17:15:30.952Z,26.23
2022-12-18T17:17:36.677Z,25.85
2022-12-18T17:19:45.269Z,27.40
2022-12-18T17:21:52.624Z,26.63
2022-12-18T17:24:02.442Z,25.92
2022-12-18T17:26:08.393Z,26.35
2022-12-18T17:28:13.971Z,28.75
2022-12-18T17:30:18.878Z,27.73
2022-12-18T17:32:24.614Z,26.58
2022-12-18T17:34:29.772Z,24.95
2022-12-18T17:36:35.602Z,25.45
2022-12-18T17:40:50.416Z,27.70
2022-12-18T17:42:56.028Z,25.75
2022-12-18T17:47:06.300Z,27.10
2022-12-18T17:49:11.162Z,28.17
2022-12-18T17:51:18.212Z,26.58
2022-12-18T17:53:23.060Z,28.63
2022-12-18T17:55:28.427Z,28.13
2022-12-18T17:57:38.219Z,26.98
2022-12-18T17:59:43.020Z,27.65
2022-12-18T18:01:48.059Z,26.75
2022-12-18T18:03:54.133Z,29.33
2022-12-18T18:05:59.188Z,27.60
2022-12-18T18:10:10.487Z,27.70
2022-12-18T18:12:27.730Z,26.98
2022-12-18T18:14:35.618Z,26.13
2022-12-18T18:16:43.079Z,27.35
2022-12-18T18:18:47.951Z,26.65
2022-12-18T18:20:53.972Z,26.05
2022-12-18T18:22:59.420Z,27.23
2022-12-18T18:25:04.937Z,29.27
2022-12-18T18:27:10.351Z,26.88
2022-12-18T18:29:18.021Z,27.23
2022-12-18T18:31:39.681Z,26.42
2022-12-18T18:33:45.986Z,26.10
2022-12-18T18:35:54.766Z,28.35
2022-12-18T18:37:59.767Z,27.75
2022-12-18T18:40:04.589Z,26.42
2022-12-18T18:42:09.427Z,26.35
2022-12-18T18:44:14.569Z,27.05
2022-12-18T18:46:19.679Z,26.77
2022-12-18T18:48:27.356Z,28.02
2022-12-18T18:50:34.910Z,27.60
2022-12-18T18:52:39.918Z,27.30
2022-12-18T18:55:10.742Z,26.60
2022-12-18T18:57:20.424Z,27.48
2022-12-18T18:59:31.370Z,21.60
2022-12-18T19:01:39.595Z,26.15
2022-12-18T19:03:48.214Z,27.35
2022-12-18T19:05:55.861Z,28.05
2022-12-18T19:08:03.088Z,28.13
2022-12-18T19:10:09.215Z,27.13
2022-12-18T19:12:26.547Z,34.35
2022-12-18T19:14:31.970Z,29.73
2022-12-18T19:16:38.383Z,27.85
2022-12-18T19:18:43.921Z,26.92
2022-12-18T19:21:01.605Z,28.50
2022-12-18T19:23:06.765Z,28.67
2022-12-18T19:27:20.247Z,28.35
2022-12-18T19:29:25.571Z,27.05
2022-12-18T19:33:44.024Z,24.85
2022-12-18T19:35:49.215Z,24.42
2022-12-18T19:37:56.648Z,27.40
2022-12-18T19:40:02.659Z,27.25
2022-12-18T19:42:14.060Z,28.95
2022-12-18T19:44:20.429Z,27.40
2022-12-18T19:46:26.588Z,26.05
2022-12-18T19:48:31.451Z,27.67
2022-12-18T19:50:36.700Z,27.08
2022-12-18T19:52:41.460Z,25.15
2022-12-18T19:56:53.898Z,27.83
2022-12-18T19:58:59.249Z,27.45
2022-12-18T20:01:04.163Z,26.38
2022-12-18T20:03:21.620Z,26.17
2022-12-18T20:05:28.795Z,27.38
2022-12-18T20:07:34.019Z,26.98
2022-12-18T20:09:40.544Z,26.23
2022-12-18T20:11:48.969Z,26.48
2022-12-18T20:13:54.207Z,25.35
2022-12-18T20:15:59.308Z,25.38
2022-12-18T20:18:04.185Z,24.95
2022-12-18T20:20:10.210Z,27.05
2022-12-18T20:22:15.111Z,23.98
2022-12-18T20:24:19.949Z,25.63
2022-12-18T20:26:24.926Z,26.77
2022-12-18T20:28:33.331Z,25.00
2022-12-18T20:30:41.385Z,24.35
2022-12-18T20:32:46.135Z,24.23
2022-12-18T20:34:50.924Z,25.13
2022-12-18T20:36:56.837Z,24.25
2022-12-18T20:39:02.785Z,25.17
2022-12-18T20:41:11.849Z,23.58
2022-12-18T20:43:17.493Z,23.52
2022-12-18T20:45:24.981Z,24.20
2022-12-18T20:47:29.861Z,23.63
2022-12-18T20:49:34.643Z,23.27
2022-12-18T20:51:39.615Z,24.33
2022-12-18T20:53:45.622Z,23.75
2022-12-18T20:55:50.566Z,24.70
2022-12-18T20:57:55.515Z,22.95
2022-12-18T21:00:00.509Z,23.80
2022-12-18T21:04:12.999Z,22.63
2022-12-18T21:06:20.987Z,23.25
2022-12-18T21:08:25.896Z,24.88
2022-12-18T21:10:30.703Z,23.73
2022-12-18T21:14:55.703Z,22.35
2022-12-18T21:17:02.365Z,22.70
2022-12-18T21:19:10.034Z,24.55
2022-12-18T21:21:14.883Z,24.58
2022-12-18T21:25:25.259Z,21.80
2022-12-18T21:27:30.660Z,22.55
2022-12-18T21:29:35.950Z,22.48
2022-12-18T21:31:43.039Z,22.35
2022-12-18T21:33:47.835Z,22.15
2022-12-18T21:35:55.845Z,22.85
2022-12-18T21:38:01.427Z,19.60
2022-12-18T21:40:10.154Z,22.55
2022-12-18T21:42:27.711Z,22.40
2022-12-18T21:44:33.970Z,23.13
2022-12-18T21:46:54.866Z,24.52
2022-12-18T21:49:01.862Z,18.52
2022-12-18T21:51:09.488Z,23.80
2022-12-18T21:53:14.287Z,21.02
2022-12-18T21:55:19.286Z,24.50
2022-12-18T21:57:24.094Z,22.17
2022-12-18T21:59:30.580Z,22.85
2022-12-18T22:01:37.073Z,22.25
2022-12-18T22:03:42.709Z,22.48
2022-12-18T22:05:50.593Z,23.15
2022-12-18T22:08:11.990Z,19.17
2022-12-18T22:10:16.987Z,21.70
2022-12-18T22:12:35.664Z,22.75
2022-12-18T22:14:41.734Z,21.27
2022-12-18T22:16:46.997Z,22.23
2022-12-18T22:18:52.823Z,23.27
2022-12-18T22:21:04.467Z,20.38
2022-12-18T22:23:13.129Z,22.02
2022-12-18T22:25:18.066Z,22.67
2022-12-18T22:27:22.869Z,23.17
2022-12-18T22:29:40.612Z,23.98
2022-12-18T22:31:45.582Z,21.02
2022-12-18T22:33:51.226Z,21.45
2022-12-18T22:35:56.027Z,21.20
2022-12-18T22:38:06.345Z,20.02
2022-12-18T22:40:24.105Z,22.08
2022-12-18T22:42:30.295Z,21.58
2022-12-18T22:44:35.050Z,20.00
2022-12-18T22:46:41.868Z,22.83
2022-12-18T22:48:47.235Z,23.35
2022-12-18T22:50:53.436Z,21.63
2022-12-18T22:53:04.333Z,21.83
2022-12-18T22:55:10.539Z,21.67
2022-12-18T22:57:18.063Z,21.60
2022-12-18T22:59:25.045Z,22.80
2022-12-18T23:01:31.930Z,21.70
2022-12-18T23:03:38.262Z,19.70
2022-12-18T23:05:43.121Z,22.13
2022-12-18T23:07:48.189Z,22.83
2022-12-18T23:12:06.757Z,21.90
2022-12-18T23:14:14.849Z,23.45
2022-12-18T23:16:21.214Z,23.30
2022-12-18T23:18:26.230Z,22.60
2022-12-18T23:20:31.030Z,21.55
2022-12-18T23:22:35.905Z,22.33
2022-12-18T23:26:45.462Z,22.30
2022-12-18T23:28:50.603Z,22.48
2022-12-18T23:33:08.391Z,22.52
2022-12-18T23:35:14.213Z,24.45
2022-12-18T23:37:49.775Z,23.42
2022-12-18T23:39:46.184Z,22.88
2022-12-18T23:41:50.968Z,22.23
2022-12-18T23:43:57.503Z,23.00
2022-12-18T23:46:05.062Z,21.52
2022-12-18T23:48:09.912Z,22.92
2022-12-18T23:50:14.695Z,22.42
2022-12-18T23:52:19.538Z,22.63
2022-12-18T23:54:32.877Z,23.42
2022-12-18T23:56:38.995Z,23.73
2022-12-18T23:58:46.201Z,23.50
